createdAt,value
2018-05-12T00:00:13.069Z,20.10
2018-05-12T00:01:13.069Z,22.20
2018-05-12T00:02:13.112Z,19.30
2018-05-12T00:03:13.069Z,17.90
2018-05-12T00:04:13.072Z,18.90
2018-05-12T00:05:13.074Z,25.90
2018-05-12T00:06:13.080Z,54.70
2018-05-12T00:07:13.078Z,47.10
2018-05-12T00:08:13.091Z,33.50
2018-05-12T00:09:14.036Z,29.40
2018-05-12T00:10:13.078Z,21.20
2018-05-12T00:11:13.082Z,18.70
2018-05-12T00:12:13.083Z,20.40
2018-05-12T00:13:13.087Z,17.60
2018-05-12T00:14:13.083Z,30.00
2018-05-12T00:15:13.087Z,24.40
2018-05-12T00:16:13.088Z,24.00
2018-05-12T00:17:13.086Z,21.30
2018-05-12T00:18:13.112Z,23.20
2018-05-12T00:19:13.090Z,36.90
2018-05-12T00:20:13.089Z,41.70
2018-05-12T00:21:13.095Z,34.70
2018-05-12T00:22:13.093Z,25.60
2018-05-12T00:23:13.108Z,37.90
2018-05-12T00:24:13.094Z,26.60
2018-05-12T00:25:13.096Z,30.70
2018-05-12T00:26:13.112Z,22.30
2018-05-12T00:27:13.117Z,19.40
2018-05-12T00:28:13.116Z,95.90
2018-05-12T00:29:13.103Z,96.70
2018-05-12T00:30:14.404Z,82.00
2018-05-12T00:31:13.102Z,34.10
2018-05-12T00:32:13.103Z,82.00
2018-05-12T00:33:13.106Z,91.40
2018-05-12T00:34:13.108Z,24.80
2018-05-12T00:35:13.108Z,26.60
2018-05-12T00:36:13.115Z,23.10
2018-05-12T00:37:13.113Z,26.70
2018-05-12T00:38:13.111Z,24.60
2018-05-12T00:39:13.120Z,18.80
2018-05-12T00:40:13.114Z,18.30
2018-05-12T00:41:13.119Z,19.00
2018-05-12T00:42:13.116Z,19.70
2018-05-12T00:43:13.116Z,18.60
2018-05-12T00:44:13.121Z,18.60
2018-05-12T00:45:13.120Z,21.30
2018-05-12T00:46:13.120Z,20.20
2018-05-12T00:47:13.121Z,20.10
2018-05-12T00:48:13.123Z,18.50
2018-05-12T00:49:13.130Z,19.70
2018-05-12T00:50:13.137Z,39.10
2018-05-12T00:51:13.154Z,33.90
2018-05-12T00:52:13.128Z,28.30
2018-05-12T00:53:13.131Z,19.90
2018-05-12T00:54:13.131Z,18.60
2018-05-12T00:55:13.179Z,18.60
2018-05-12T00:56:13.133Z,21.60
2018-05-12T00:57:13.134Z,23.30
2018-05-12T00:58:13.136Z,27.20
2018-05-12T00:59:13.135Z,27.00
2018-05-12T01:00:13.137Z,26.30
2018-05-12T01:01:13.139Z,32.90
2018-05-12T01:02:13.142Z,29.10
2018-05-12T01:03:13.141Z,29.60
2018-05-12T01:04:13.142Z,30.30
2018-05-12T01:05:13.143Z,34.80
2018-05-12T01:06:13.148Z,29.30
2018-05-12T01:07:13.147Z,30.40
2018-05-12T01:08:13.148Z,30.10
2018-05-12T01:09:13.149Z,33.60
2018-05-12T01:10:13.155Z,35.10
2018-05-12T01:11:13.164Z,34.60
2018-05-12T01:12:13.150Z,35.30
2018-05-12T01:13:13.216Z,34.10
2018-05-12T01:14:13.152Z,28.90
2018-05-12T01:15:13.155Z,38.60
2018-05-12T01:16:13.156Z,35.60
2018-05-12T01:17:13.157Z,32.10
2018-05-12T01:18:13.157Z,34.80
2018-05-12T01:19:13.157Z,33.50
2018-05-12T01:20:13.160Z,32.50
2018-05-12T01:21:13.162Z,30.10
2018-05-12T01:22:13.171Z,36.70
2018-05-12T01:23:13.164Z,30.30
2018-05-12T01:24:13.163Z,34.20
2018-05-12T01:25:13.256Z,32.70
2018-05-12T01:26:13.166Z,36.60
2018-05-12T01:27:13.167Z,34.20
2018-05-12T01:28:13.172Z,37.30
2018-05-12T01:29:13.166Z,31.70
2018-05-12T01:30:13.169Z,36.10
2018-05-12T01:31:13.170Z,29.40
2018-05-12T01:32:13.170Z,36.30
2018-05-12T01:33:13.174Z,30.60
2018-05-12T01:34:13.171Z,37.00
2018-05-12T01:35:13.173Z,32.70
2018-05-12T01:36:13.173Z,63.10
2018-05-12T01:37:13.174Z,58.50
2018-05-12T01:38:13.177Z,39.20
2018-05-12T01:39:13.184Z,28.30
2018-05-12T01:40:13.178Z,17.50
2018-05-12T01:41:13.340Z,17.00
2018-05-12T01:42:13.179Z,20.50
2018-05-12T01:43:13.178Z,19.10
2018-05-12T01:44:13.180Z,19.40
2018-05-12T01:45:13.180Z,18.30
2018-05-12T01:46:13.209Z,18.50
2018-05-12T01:47:13.182Z,40.90
2018-05-12T01:48:13.185Z,36.20
2018-05-12T01:49:13.186Z,35.20
2018-05-12T01:50:13.186Z,38.30
2018-05-12T01:51:13.185Z,37.60
2018-05-12T01:52:13.188Z,38.80
2018-05-12T01:53:13.193Z,22.00
2018-05-12T01:54:13.207Z,19.40
2018-05-12T01:55:13.191Z,48.40
2018-05-12T01:56:13.195Z,34.10
2018-05-12T01:57:13.194Z,43.50
2018-05-12T01:58:13.194Z,29.30
2018-05-12T01:59:13.195Z,36.70
2018-05-12T02:00:13.199Z,39.40
2018-05-12T02:01:13.197Z,31.50
2018-05-12T02:02:13.199Z,24.20
2018-05-12T02:03:13.239Z,32.70
2018-05-12T02:04:13.202Z,22.70
2018-05-12T02:05:13.202Z,19.70
2018-05-12T02:06:13.207Z,20.70
2018-05-12T02:07:13.205Z,21.90
2018-05-12T02:08:13.207Z,19.40
2018-05-12T02:09:13.206Z,22.70
2018-05-12T02:10:13.219Z,23.00
2018-05-12T02:11:13.207Z,23.20
2018-05-12T02:12:13.803Z,28.70
2018-05-12T02:13:13.210Z,22.00
2018-05-12T02:14:13.215Z,22.00
2018-05-12T02:15:13.211Z,20.90
2018-05-12T02:16:13.213Z,22.80
2018-05-12T02:17:13.215Z,24.10
2018-05-12T02:18:13.215Z,24.90
2018-05-12T02:19:13.215Z,22.70
2018-05-12T02:20:13.224Z,20.50
2018-05-12T02:21:13.219Z,22.10
2018-05-12T02:22:13.220Z,19.20
2018-05-12T02:23:13.221Z,20.70
2018-05-12T02:24:13.222Z,24.50
2018-05-12T02:25:13.223Z,23.00
2018-05-12T02:26:13.224Z,18.00
2018-05-12T02:27:13.225Z,21.70
2018-05-12T02:28:13.230Z,21.80
2018-05-12T02:29:13.228Z,18.20
2018-05-12T02:30:13.231Z,18.70
2018-05-12T02:31:13.229Z,18.70
2018-05-12T02:32:13.231Z,20.10
2018-05-12T02:33:13.234Z,20.80
2018-05-12T02:34:13.237Z,21.20
2018-05-12T02:35:13.233Z,18.20
2018-05-12T02:36:13.234Z,20.40
2018-05-12T02:37:13.239Z,19.60
2018-05-12T02:38:13.236Z,29.00
2018-05-12T02:39:13.240Z,29.90
2018-05-12T02:40:13.240Z,35.90
2018-05-12T02:41:13.241Z,34.60
2018-05-12T02:42:13.246Z,33.30
2018-05-12T02:43:14.239Z,33.40
2018-05-12T02:44:13.244Z,33.80
2018-05-12T02:45:13.243Z,34.00
2018-05-12T02:46:13.246Z,32.20
2018-05-12T02:47:13.254Z,33.70
2018-05-12T02:48:13.246Z,32.80
2018-05-12T02:49:13.256Z,34.70
2018-05-12T02:50:13.253Z,36.60
2018-05-12T02:51:13.247Z,32.70
2018-05-12T02:52:13.249Z,38.60
2018-05-12T02:53:13.252Z,32.10
2018-05-12T02:54:13.251Z,34.00
2018-05-12T02:55:13.255Z,34.40
2018-05-12T02:56:13.253Z,22.70
2018-05-12T02:57:13.261Z,19.50
2018-05-12T02:58:13.255Z,18.80
2018-05-12T02:59:13.254Z,22.70
2018-05-12T03:00:13.254Z,22.70
2018-05-12T03:01:13.255Z,19.50
2018-05-12T03:02:13.257Z,20.60
2018-05-12T03:03:13.256Z,25.40
2018-05-12T03:04:13.258Z,27.80
2018-05-12T03:05:13.260Z,23.70
2018-05-12T03:06:13.261Z,23.10
2018-05-12T03:07:13.260Z,23.90
2018-05-12T03:08:13.260Z,25.30
2018-05-12T03:09:13.275Z,21.80
2018-05-12T03:10:13.263Z,21.00
2018-05-12T03:11:13.263Z,21.30
2018-05-12T03:12:13.264Z,25.60
2018-05-12T03:13:13.268Z,24.00
2018-05-12T03:14:13.270Z,25.50
2018-05-12T03:15:13.268Z,26.50
2018-05-12T03:16:13.265Z,24.10
2018-05-12T03:17:13.268Z,24.70
2018-05-12T03:18:34.278Z,21.50
2018-05-12T03:19:13.268Z,21.60
2018-05-12T03:20:13.270Z,23.50
2018-05-12T03:21:13.277Z,26.00
2018-05-12T03:22:13.274Z,22.70
2018-05-12T03:23:13.278Z,22.20
2018-05-12T03:24:13.273Z,22.70
2018-05-12T03:25:14.945Z,24.20
2018-05-12T03:26:13.275Z,22.50
2018-05-12T03:27:13.274Z,21.90
2018-05-12T03:28:13.277Z,24.40
2018-05-12T03:29:13.276Z,24.10
2018-05-12T03:30:13.281Z,23.60
2018-05-12T03:31:13.279Z,23.40
2018-05-12T03:32:13.278Z,23.10
2018-05-12T03:33:13.283Z,22.90
2018-05-12T03:34:13.280Z,21.20
2018-05-12T03:35:13.282Z,23.70
2018-05-12T03:36:13.280Z,27.00
2018-05-12T03:37:13.281Z,24.30
2018-05-12T03:38:13.283Z,24.70
2018-05-12T03:39:13.282Z,23.80
2018-05-12T03:40:13.283Z,24.20
2018-05-12T03:41:13.284Z,22.50
2018-05-12T03:42:13.284Z,22.40
2018-05-12T03:43:13.288Z,27.00
2018-05-12T03:44:13.288Z,24.30
2018-05-12T03:45:13.287Z,27.70
2018-05-12T03:46:13.288Z,28.10
2018-05-12T03:47:13.286Z,26.30
2018-05-12T03:48:13.288Z,28.90
2018-05-12T03:49:13.289Z,26.90
2018-05-12T03:50:13.291Z,31.00
2018-05-12T03:51:13.292Z,30.80
2018-05-12T03:52:13.291Z,28.00
2018-05-12T03:53:13.292Z,29.40
2018-05-12T03:54:13.291Z,30.40
2018-05-12T03:55:13.293Z,30.10
2018-05-12T03:56:13.294Z,33.90
2018-05-12T03:57:13.293Z,30.90
2018-05-12T03:58:13.296Z,32.80
2018-05-12T03:59:13.293Z,30.60
2018-05-12T04:00:13.297Z,28.50
2018-05-12T04:01:13.296Z,28.10
2018-05-12T04:02:13.295Z,30.00
2018-05-12T04:03:13.294Z,31.20
2018-05-12T04:04:13.296Z,34.20
2018-05-12T04:05:13.298Z,30.80
2018-05-12T04:06:13.296Z,32.80
2018-05-12T04:07:13.295Z,28.70
2018-05-12T04:08:13.297Z,32.20
2018-05-12T04:09:13.297Z,28.70
2018-05-12T04:10:13.298Z,32.10
2018-05-12T04:11:13.298Z,29.10
2018-05-12T04:12:13.302Z,29.00
2018-05-12T04:13:13.299Z,30.50
2018-05-12T04:14:13.300Z,27.70
2018-05-12T04:15:13.572Z,31.20
2018-05-12T04:16:13.300Z,30.50
2018-05-12T04:17:13.300Z,32.50
2018-05-12T04:18:13.303Z,29.90
2018-05-12T04:19:13.302Z,32.70
2018-05-12T04:20:13.303Z,28.20
2018-05-12T04:21:13.306Z,31.30
2018-05-12T04:22:13.303Z,29.30
2018-05-12T04:23:13.304Z,31.30
2018-05-12T04:24:13.303Z,31.10
2018-05-12T04:25:13.305Z,29.60
2018-05-12T04:26:13.306Z,31.10
2018-05-12T04:27:13.307Z,29.60
2018-05-12T04:28:13.304Z,30.80
2018-05-12T04:29:13.306Z,34.50
2018-05-12T04:30:13.307Z,32.70
2018-05-12T04:31:13.311Z,32.10
2018-05-12T04:32:13.309Z,30.00
2018-05-12T04:33:13.311Z,31.20
2018-05-12T04:34:13.310Z,34.50
2018-05-12T04:35:13.309Z,30.20
2018-05-12T04:36:13.314Z,33.50
2018-05-12T04:37:13.313Z,30.80
2018-05-12T04:38:13.313Z,30.00
2018-05-12T04:39:13.314Z,31.60
2018-05-12T04:40:13.313Z,30.30
2018-05-12T04:41:13.332Z,29.60
2018-05-12T04:42:13.315Z,27.40
2018-05-12T04:43:13.321Z,29.30
2018-05-12T04:44:13.315Z,33.70
2018-05-12T04:45:13.322Z,31.90
2018-05-12T04:46:14.020Z,32.00
2018-05-12T04:47:13.319Z,31.90
2018-05-12T04:48:13.322Z,34.00
2018-05-12T04:49:13.320Z,30.20
2018-05-12T04:50:13.321Z,32.10
2018-05-12T04:51:13.321Z,33.70
2018-05-12T04:52:13.321Z,36.30
2018-05-12T04:53:13.323Z,31.90
2018-05-12T04:54:13.399Z,31.60
2018-05-12T04:55:13.325Z,32.90
2018-05-12T04:56:13.324Z,33.30
2018-05-12T04:57:13.326Z,32.20
2018-05-12T04:58:13.326Z,33.50
2018-05-12T04:59:13.326Z,34.50
2018-05-12T05:00:13.329Z,33.60
2018-05-12T05:01:13.328Z,33.90
2018-05-12T05:02:13.330Z,39.70
2018-05-12T05:03:13.335Z,35.80
2018-05-12T05:04:13.386Z,35.50
2018-05-12T05:05:13.334Z,45.40
2018-05-12T05:06:13.336Z,39.70
2018-05-12T05:07:13.333Z,38.70
2018-05-12T05:08:13.370Z,38.00
2018-05-12T05:09:13.345Z,41.80
2018-05-12T05:10:13.336Z,42.70
2018-05-12T05:11:13.339Z,44.70
2018-05-12T05:12:13.338Z,41.50
2018-05-12T05:13:13.339Z,42.70
2018-05-12T05:14:13.348Z,42.00
2018-05-12T05:15:13.419Z,43.80
2018-05-12T05:16:13.340Z,43.50
2018-05-12T05:17:13.341Z,46.20
2018-05-12T05:18:13.343Z,42.30
2018-05-12T05:19:13.342Z,42.20
2018-05-12T05:20:13.345Z,42.70
2018-05-12T05:21:13.374Z,42.40
2018-05-12T05:22:13.351Z,42.80
2018-05-12T05:23:13.354Z,41.50
2018-05-12T05:24:13.346Z,41.10
2018-05-12T05:25:13.348Z,44.60
2018-05-12T05:26:13.349Z,43.20
2018-05-12T05:27:13.349Z,44.90
2018-05-12T05:28:13.351Z,41.10
2018-05-12T05:29:13.351Z,41.90
2018-05-12T05:30:13.353Z,41.40
2018-05-12T05:31:13.353Z,44.40
2018-05-12T05:32:13.353Z,47.10
2018-05-12T05:33:13.355Z,43.90
2018-05-12T05:34:13.356Z,45.60
2018-05-12T05:35:13.376Z,47.00
2018-05-12T05:36:13.357Z,44.10
2018-05-12T05:37:13.358Z,43.80
2018-05-12T05:38:13.359Z,46.60
2018-05-12T05:39:13.361Z,44.30
2018-05-12T05:40:13.361Z,42.80
2018-05-12T05:41:13.364Z,45.50
2018-05-12T05:42:13.363Z,46.20
2018-05-12T05:43:13.362Z,45.40
2018-05-12T05:44:13.367Z,42.90
2018-05-12T05:45:13.373Z,41.60
2018-05-12T05:46:13.373Z,45.00
2018-05-12T05:47:13.369Z,43.10
2018-05-12T05:48:13.368Z,42.80
2018-05-12T05:49:13.369Z,45.90
2018-05-12T05:50:13.380Z,45.80
2018-05-12T05:51:13.369Z,46.80
2018-05-12T05:52:13.370Z,46.10
2018-05-12T05:53:13.373Z,45.80
2018-05-12T05:54:13.375Z,44.20
2018-05-12T05:55:13.378Z,44.10
2018-05-12T05:56:13.374Z,45.00
2018-05-12T05:57:13.376Z,43.60
2018-05-12T05:58:13.381Z,44.90
2018-05-12T05:59:13.378Z,42.20
2018-05-12T06:00:13.378Z,42.70
2018-05-12T06:01:13.380Z,43.60
2018-05-12T06:02:13.381Z,45.70
2018-05-12T06:03:13.381Z,44.40
2018-05-12T06:04:13.400Z,44.00
2018-05-12T06:05:13.382Z,43.80
2018-05-12T06:06:13.388Z,43.40
2018-05-12T06:07:13.501Z,45.30
2018-05-12T06:08:13.387Z,43.80
2018-05-12T06:09:13.388Z,44.20
2018-05-12T06:10:13.389Z,40.80
2018-05-12T06:11:13.389Z,42.10
2018-05-12T06:12:13.464Z,47.00
2018-05-12T06:13:13.411Z,44.50
2018-05-12T06:14:13.401Z,41.80
2018-05-12T06:15:13.394Z,44.70
2018-05-12T06:16:13.394Z,48.10
2018-05-12T06:17:13.397Z,42.50
2018-05-12T06:18:13.419Z,41.70
2018-05-12T06:19:13.396Z,42.10
2018-05-12T06:20:13.399Z,42.60
2018-05-12T06:21:13.400Z,43.20
2018-05-12T06:22:13.402Z,41.40
2018-05-12T06:23:13.403Z,44.20
2018-05-12T06:24:13.403Z,37.80
2018-05-12T06:25:13.406Z,41.90
2018-05-12T06:26:13.411Z,43.60
2018-05-12T06:27:13.407Z,43.90
2018-05-12T06:28:13.410Z,42.60
2018-05-12T06:29:13.408Z,43.60
2018-05-12T06:30:13.410Z,44.90
2018-05-12T06:31:13.412Z,45.20
2018-05-12T06:32:13.415Z,44.20
2018-05-12T06:33:13.415Z,45.60
2018-05-12T06:34:13.418Z,43.20
2018-05-12T06:35:13.420Z,44.10
2018-05-12T06:36:13.419Z,40.20
2018-05-12T06:37:13.422Z,44.60
2018-05-12T06:38:13.423Z,40.80
2018-05-12T06:39:13.423Z,46.60
2018-05-12T06:40:13.426Z,42.60
2018-05-12T06:41:13.427Z,44.50
2018-05-12T06:42:13.430Z,45.50
2018-05-12T06:43:13.442Z,43.60
2018-05-12T06:44:13.432Z,42.80
2018-05-12T06:45:13.433Z,46.60
2018-05-12T06:46:13.436Z,41.40
2018-05-12T06:47:13.437Z,40.40
2018-05-12T06:48:13.440Z,44.70
2018-05-12T06:49:13.556Z,39.60
2018-05-12T06:50:13.447Z,45.70
2018-05-12T06:51:13.445Z,43.10
2018-05-12T06:52:13.448Z,41.60
2018-05-12T06:53:13.455Z,39.00
2018-05-12T06:54:13.452Z,44.70
2018-05-12T06:55:13.456Z,47.10
2018-05-12T06:56:13.454Z,48.30
2018-05-12T06:57:13.456Z,48.00
2018-05-12T06:58:13.464Z,44.70
2018-05-12T06:59:13.463Z,43.80
2018-05-12T07:00:13.463Z,41.40
2018-05-12T07:01:13.466Z,44.20
2018-05-12T07:02:13.471Z,43.20
2018-05-12T07:03:13.469Z,43.50
2018-05-12T07:04:13.471Z,40.80
2018-05-12T07:05:13.473Z,45.60
2018-05-12T07:06:13.477Z,46.70
2018-05-12T07:07:13.479Z,44.60
2018-05-12T07:08:13.480Z,47.30
2018-05-12T07:09:13.484Z,45.10
2018-05-12T07:10:13.486Z,43.80
2018-05-12T07:11:13.487Z,47.40
2018-05-12T07:12:13.548Z,47.60
2018-05-12T07:13:13.493Z,41.70
2018-05-12T07:14:13.498Z,47.00
2018-05-12T07:15:13.497Z,43.50
2018-05-12T07:16:13.498Z,44.70
2018-05-12T07:17:13.500Z,45.40
2018-05-12T07:18:13.503Z,43.80
2018-05-12T07:19:13.508Z,44.20
2018-05-12T07:20:13.963Z,45.00
2018-05-12T07:21:13.512Z,45.40
2018-05-12T07:22:13.512Z,45.30
2018-05-12T07:23:13.520Z,45.50
2018-05-12T07:24:13.526Z,43.10
2018-05-12T07:25:13.518Z,43.50
2018-05-12T07:26:13.522Z,47.50
2018-05-12T07:27:13.523Z,44.00
2018-05-12T07:28:13.524Z,50.80
2018-05-12T07:29:13.526Z,46.50
2018-05-12T07:30:13.533Z,46.30
2018-05-12T07:31:13.530Z,41.50
2018-05-12T07:32:13.545Z,45.20
2018-05-12T07:33:13.534Z,40.60
2018-05-12T07:34:13.537Z,42.30
2018-05-12T07:35:13.539Z,44.50
2018-05-12T07:36:13.543Z,45.30
2018-05-12T07:37:13.545Z,43.50
2018-05-12T07:38:13.546Z,47.80
2018-05-12T07:39:13.548Z,46.50
2018-05-12T07:40:13.550Z,44.20
2018-05-12T07:41:13.554Z,46.70
2018-05-12T07:42:13.555Z,45.10
2018-05-12T07:43:13.556Z,44.80
2018-05-12T07:44:13.559Z,46.30
2018-05-12T07:45:13.560Z,45.00
2018-05-12T07:46:13.611Z,44.80
2018-05-12T07:47:13.564Z,49.70
2018-05-12T07:48:13.569Z,44.00
2018-05-12T07:49:13.569Z,45.90
2018-05-12T07:50:13.574Z,44.00
2018-05-12T07:51:14.338Z,47.40
2018-05-12T07:52:13.575Z,45.10
2018-05-12T07:53:13.577Z,47.70
2018-05-12T07:54:13.579Z,45.50
2018-05-12T07:55:13.581Z,43.90
2018-05-12T07:56:13.583Z,45.20
2018-05-12T07:57:13.584Z,46.90
2018-05-12T07:58:13.592Z,43.50
2018-05-12T07:59:13.591Z,47.10
2018-05-12T08:00:13.591Z,44.70
2018-05-12T08:01:13.594Z,45.40
2018-05-12T08:02:13.599Z,49.40
2018-05-12T08:03:13.597Z,45.20
2018-05-12T08:04:13.600Z,45.00
2018-05-12T08:05:13.604Z,43.60
2018-05-12T08:06:13.606Z,43.20
2018-05-12T08:07:13.607Z,47.20
2018-05-12T08:08:13.608Z,47.10
2018-05-12T08:09:13.629Z,44.10
2018-05-12T08:10:13.614Z,45.30
2018-05-12T08:11:13.615Z,48.20
2018-05-12T08:12:13.619Z,48.10
2018-05-12T08:13:13.621Z,46.30
2018-05-12T08:14:13.624Z,45.60
2018-05-12T08:15:13.625Z,43.60
2018-05-12T08:16:13.627Z,43.40
2018-05-12T08:17:13.630Z,44.30
2018-05-12T08:18:13.632Z,45.20
2018-05-12T08:19:13.638Z,47.00
2018-05-12T08:20:13.637Z,44.40
2018-05-12T08:21:13.640Z,46.40
2018-05-12T08:22:13.647Z,42.20
2018-05-12T08:23:13.645Z,47.80
2018-05-12T08:24:13.649Z,44.70
2018-05-12T08:25:13.686Z,44.00
2018-05-12T08:26:13.669Z,46.10
2018-05-12T08:27:13.654Z,44.40
2018-05-12T08:28:13.657Z,44.50
2018-05-12T08:29:13.664Z,50.50
2018-05-12T08:30:13.663Z,44.70
2018-05-12T08:31:13.666Z,49.50
2018-05-12T08:32:13.696Z,51.50
2018-05-12T08:33:13.687Z,46.10
2018-05-12T08:34:13.676Z,45.90
2018-05-12T08:35:13.676Z,45.20
2018-05-12T08:36:13.683Z,46.00
2018-05-12T08:37:13.682Z,43.90
2018-05-12T08:38:13.691Z,41.50
2018-05-12T08:39:13.693Z,42.80
2018-05-12T08:40:13.693Z,43.40
2018-05-12T08:41:13.701Z,42.80
2018-05-12T08:42:13.703Z,45.50
2018-05-12T08:43:13.700Z,43.60
2018-05-12T08:44:13.702Z,46.30
2018-05-12T08:45:13.706Z,43.90
2018-05-12T08:46:13.720Z,40.80
2018-05-12T08:47:13.713Z,43.20
2018-05-12T08:48:13.784Z,40.30
2018-05-12T08:49:13.723Z,40.00
2018-05-12T08:50:13.729Z,39.50
2018-05-12T08:51:13.733Z,39.50
2018-05-12T08:52:13.735Z,43.90
2018-05-12T08:53:13.787Z,55.00
2018-05-12T08:54:13.747Z,40.60
2018-05-12T08:55:13.797Z,37.90
2018-05-12T08:56:13.769Z,38.90
2018-05-12T08:57:13.766Z,41.70
2018-05-12T08:58:13.771Z,39.10
2018-05-12T08:59:13.777Z,34.60
2018-05-12T09:00:13.784Z,35.70
2018-05-12T09:01:13.799Z,39.60
2018-05-12T09:02:13.800Z,37.70
2018-05-12T09:03:13.808Z,37.50
2018-05-12T09:04:13.815Z,39.00
2018-05-12T09:05:13.823Z,37.30
2018-05-12T09:06:13.834Z,39.30
2018-05-12T09:07:13.868Z,35.00
2018-05-12T09:08:13.880Z,36.40
2018-05-12T09:09:13.857Z,34.80
2018-05-12T09:10:13.870Z,34.10
2018-05-12T09:11:13.872Z,33.80
2018-05-12T09:12:13.887Z,33.30
2018-05-12T09:13:13.892Z,39.30
2018-05-12T09:14:13.902Z,35.70
2018-05-12T09:15:13.912Z,33.90
2018-05-12T09:16:13.922Z,35.50
2018-05-12T09:17:13.930Z,34.70
2018-05-12T09:18:13.943Z,34.70
2018-05-12T09:19:14.032Z,32.90
2018-05-12T09:20:13.963Z,36.00
2018-05-12T09:21:13.978Z,33.30
2018-05-12T09:22:13.988Z,34.20
2018-05-12T09:23:13.993Z,34.30
2018-05-12T09:24:14.012Z,36.70
2018-05-12T09:25:14.013Z,36.90
2018-05-12T09:26:14.036Z,35.00
2018-05-12T09:27:14.036Z,32.40
2018-05-12T09:28:14.048Z,35.10
2018-05-12T09:29:14.055Z,32.20
2018-05-12T09:30:14.066Z,32.50
2018-05-12T09:31:14.076Z,32.60
2018-05-12T09:32:14.091Z,35.90
2018-05-12T09:33:14.131Z,35.50
2018-05-12T09:34:14.115Z,31.30
2018-05-12T09:35:14.130Z,35.10
2018-05-12T09:36:14.136Z,33.40
2018-05-12T09:37:14.147Z,33.70
2018-05-12T09:38:14.164Z,32.80
2018-05-12T09:39:14.173Z,34.00
2018-05-12T09:40:14.177Z,31.70
2018-05-12T09:41:14.194Z,31.90
2018-05-12T09:42:14.254Z,32.00
2018-05-12T09:43:14.214Z,38.80
2018-05-12T09:44:14.223Z,32.70
2018-05-12T09:45:14.232Z,32.10
2018-05-12T09:46:14.251Z,37.90
2018-05-12T09:47:14.260Z,31.80
2018-05-12T09:48:14.265Z,32.60
2018-05-12T09:49:14.284Z,31.50
2018-05-12T09:50:14.295Z,37.90
2018-05-12T09:51:14.312Z,35.60
2018-05-12T09:52:14.351Z,36.70
2018-05-12T09:53:14.325Z,35.00
2018-05-12T09:54:14.334Z,34.00
2018-05-12T09:55:14.342Z,32.80
2018-05-12T09:56:14.355Z,34.30
2018-05-12T09:57:14.363Z,36.30
2018-05-12T09:58:14.375Z,38.80
2018-05-12T09:59:14.386Z,34.50
2018-05-12T10:00:14.393Z,35.70
2018-05-12T10:01:14.405Z,35.90
2018-05-12T10:02:14.503Z,33.40
2018-05-12T10:03:14.429Z,35.80
2018-05-12T10:04:14.438Z,39.00
2018-05-12T10:05:14.442Z,36.10
2018-05-12T10:06:14.455Z,36.50
2018-05-12T10:07:14.457Z,36.10
2018-05-12T10:08:14.474Z,36.50
2018-05-12T10:09:14.481Z,35.10
2018-05-12T10:10:14.481Z,32.60
2018-05-12T10:11:14.492Z,34.90
2018-05-12T10:12:14.496Z,33.80
2018-05-12T10:13:14.505Z,31.30
2018-05-12T10:14:14.513Z,34.40
2018-05-12T10:15:14.520Z,34.00
2018-05-12T10:16:14.535Z,33.50
2018-05-12T10:17:14.538Z,33.40
2018-05-12T10:18:14.543Z,32.80
2018-05-12T10:19:14.553Z,35.10
2018-05-12T10:20:14.560Z,34.20
2018-05-12T10:21:14.569Z,34.00
2018-05-12T10:22:14.574Z,32.20
2018-05-12T10:23:14.581Z,31.90
2018-05-12T10:24:14.600Z,30.10
2018-05-12T10:25:14.595Z,30.30
2018-05-12T10:26:14.635Z,33.80
2018-05-12T10:27:14.612Z,32.00
2018-05-12T10:28:14.632Z,32.00
2018-05-12T10:29:14.630Z,31.90
2018-05-12T10:30:14.648Z,29.10
2018-05-12T10:31:14.649Z,29.30
2018-05-12T10:32:14.704Z,26.80
2018-05-12T10:33:14.668Z,29.40
2018-05-12T10:34:14.699Z,26.60
2018-05-12T10:35:14.700Z,28.80
2018-05-12T10:36:14.708Z,28.90
2018-05-12T10:37:14.713Z,26.90
2018-05-12T10:38:14.742Z,28.20
2018-05-12T10:39:14.736Z,28.10
2018-05-12T10:40:14.746Z,28.10
2018-05-12T10:41:14.788Z,30.40
2018-05-12T10:42:14.775Z,28.40
2018-05-12T10:43:14.782Z,27.50
2018-05-12T10:44:14.800Z,28.30
2018-05-12T10:45:14.806Z,28.30
2018-05-12T10:46:14.832Z,27.80
2018-05-12T10:47:14.844Z,30.50
2018-05-12T10:48:14.848Z,26.50
2018-05-12T10:49:14.864Z,27.60
2018-05-12T10:50:14.870Z,27.10
2018-05-12T10:51:14.921Z,29.30
2018-05-12T10:52:14.900Z,26.40
2018-05-12T10:53:14.915Z,28.70
2018-05-12T10:54:14.936Z,28.10
2018-05-12T10:55:14.934Z,29.20
2018-05-12T10:56:14.955Z,24.90
2018-05-12T10:57:14.965Z,29.80
2018-05-12T10:58:14.974Z,28.00
2018-05-12T10:59:14.985Z,26.80
2018-05-12T11:00:15.001Z,29.60
2018-05-12T11:01:15.014Z,30.90
2018-05-12T11:02:15.029Z,28.70
2018-05-12T11:03:15.046Z,26.10
2018-05-12T11:04:15.068Z,31.20
2018-05-12T11:05:15.066Z,29.40
2018-05-12T11:06:15.082Z,27.20
2018-05-12T11:07:15.098Z,27.80
2018-05-12T11:08:15.153Z,26.60
2018-05-12T11:09:15.127Z,28.40
2018-05-12T11:10:15.137Z,28.40
2018-05-12T11:11:15.150Z,28.00
2018-05-12T11:12:15.166Z,27.10
2018-05-12T11:13:15.180Z,28.30
2018-05-12T11:14:15.206Z,29.20
2018-05-12T11:15:15.205Z,30.30
2018-05-12T11:16:15.218Z,28.70
2018-05-12T11:17:15.233Z,30.10
2018-05-12T11:18:15.245Z,28.70
2018-05-12T11:19:15.262Z,30.50
2018-05-12T11:20:15.362Z,30.60
2018-05-12T11:21:15.285Z,31.00
2018-05-12T11:22:15.300Z,28.60
2018-05-12T11:23:15.323Z,26.90
2018-05-12T11:24:15.350Z,28.50
2018-05-12T11:25:15.425Z,27.80
2018-05-12T11:26:15.352Z,30.40
2018-05-12T11:27:15.366Z,26.10
2018-05-12T11:28:15.390Z,31.60
2018-05-12T11:29:15.390Z,28.80
2018-05-12T11:30:15.405Z,30.00
2018-05-12T11:31:15.419Z,30.50
2018-05-12T11:32:15.540Z,28.60
2018-05-12T11:33:15.438Z,31.30
2018-05-12T11:34:15.455Z,32.70
2018-05-12T11:35:15.465Z,31.60
2018-05-12T11:36:15.493Z,31.50
2018-05-12T11:37:15.486Z,30.20
2018-05-12T11:38:15.498Z,33.10
2018-05-12T11:39:15.507Z,28.60
2018-05-12T11:40:15.528Z,29.40
2018-05-12T11:41:15.557Z,27.90
2018-05-12T11:42:15.564Z,31.10
2018-05-12T11:43:15.549Z,29.70
2018-05-12T11:44:15.563Z,28.60
2018-05-12T11:45:15.575Z,28.70
2018-05-12T11:46:15.584Z,27.00
2018-05-12T11:47:15.595Z,28.80
2018-05-12T11:48:15.607Z,28.20
2018-05-12T11:49:15.622Z,27.40
2018-05-12T11:50:15.636Z,29.00
2018-05-12T11:51:15.646Z,27.10
2018-05-12T11:52:15.654Z,28.60
2018-05-12T11:53:15.666Z,29.00
2018-05-12T11:54:15.677Z,33.10
2018-05-12T11:55:15.687Z,32.00
2018-05-12T11:56:15.709Z,33.50
2018-05-12T11:57:15.710Z,32.50
2018-05-12T11:58:15.739Z,27.50
2018-05-12T11:59:15.740Z,29.90
2018-05-12T12:00:15.743Z,30.40
2018-05-12T12:01:15.753Z,30.00
2018-05-12T12:02:15.764Z,27.30
2018-05-12T12:03:15.774Z,31.70
2018-05-12T12:04:15.810Z,30.70
2018-05-12T12:05:15.814Z,38.00
2018-05-12T12:06:15.816Z,33.80
2018-05-12T12:07:15.822Z,31.00
2018-05-12T12:08:15.835Z,30.40
2018-05-12T12:09:15.844Z,29.70
2018-05-12T12:10:15.851Z,28.00
2018-05-12T12:11:15.864Z,28.60
2018-05-12T12:12:15.874Z,27.50
2018-05-12T12:13:15.881Z,28.10
2018-05-12T12:14:15.927Z,29.30
2018-05-12T12:15:15.901Z,28.70
2018-05-12T12:16:15.915Z,28.70
2018-05-12T12:17:15.950Z,32.10
2018-05-12T12:18:15.936Z,28.80
2018-05-12T12:19:15.939Z,29.00
2018-05-12T12:20:15.957Z,31.10
2018-05-12T12:21:15.972Z,31.20
2018-05-12T12:22:15.966Z,29.70
2018-05-12T12:23:15.973Z,30.30
2018-05-12T12:24:15.985Z,33.70
2018-05-12T12:25:16.017Z,27.70
2018-05-12T12:26:16.000Z,30.40
2018-05-12T12:27:16.008Z,28.70
2018-05-12T12:28:16.019Z,27.70
2018-05-12T12:29:16.024Z,27.80
2018-05-12T12:30:16.031Z,30.30
2018-05-12T12:31:16.335Z,25.90
2018-05-12T12:32:16.046Z,26.30
2018-05-12T12:33:16.071Z,28.30
2018-05-12T12:34:16.063Z,31.00
2018-05-12T12:35:16.071Z,33.30
2018-05-12T12:36:16.077Z,27.80
2018-05-12T12:37:16.084Z,27.50
2018-05-12T12:38:16.093Z,28.80
2018-05-12T12:39:16.102Z,30.70
2018-05-12T12:40:16.108Z,30.70
2018-05-12T12:41:16.114Z,29.40
2018-05-12T12:42:16.123Z,25.60
2018-05-12T12:43:16.129Z,28.60
2018-05-12T12:44:16.136Z,29.60
2018-05-12T12:45:16.159Z,27.00
2018-05-12T12:46:16.150Z,44.40
2018-05-12T12:47:16.158Z,27.00
2018-05-12T12:48:16.164Z,28.10
2018-05-12T12:49:16.174Z,28.90
2018-05-12T12:50:16.179Z,26.50
2018-05-12T12:51:16.189Z,26.00
2018-05-12T12:52:16.193Z,27.00